Time;durP1;ratioP1;P1;durP2;ratioP2;P2;SDS_P1;SDS_P2;PMS_P1;PMS_P2;Temp;Humidity;BMP_temperature;BMP_pressure;BME280_temperature;BME280_humidity;BME280_pressure;Samples;Min_cycle;Max_cycle;Signal;HPM_P1;HPM_P2
2023/06/10 00:00:51;;;;;;;2.50;2.23;;;;;;;;;;6274014;22;20190;-82
2023/06/10 00:03:23;;;;;;;5.53;3.00;;;;;;;;;;6274774;22;20176;-85
2023/06/10 00:05:52;;;;;;;2.07;1.93;;;;;;;;;;6274045;22;20177;-86
2023/06/10 00:08:20;;;;;;;1.63;1.53;;;;;;;;;;6274911;22;20230;-86
2023/06/10 00:10:49;;;;;;;1.40;1.10;;;;;;;;;;6274310;22;20228;-86
2023/06/10 00:13:19;;;;;;;5.10;3.50;;;;;;;;;;6274438;22;20194;-82
2023/06/10 00:15:50;;;;;;;1.00;0.83;;;;;;;;;;6274364;22;20171;-82
2023/06/10 00:18:21;;;;;;;1.20;1.10;;;;;;;;;;6275012;22;20180;-82
2023/06/10 00:20:52;;;;;;;1.10;1.10;;;;;;;;;;6276229;22;20233;-82
2023/06/10 00:23:22;;;;;;;0.80;0.80;;;;;;;;;;6276352;22;20169;-82
2023/06/10 00:25:50;;;;;;;3.07;1.57;;;;;;;;;;6275846;22;20186;-82
2023/06/10 00:28:20;;;;;;;0.70;0.70;;;;;;;;;;6276136;22;20195;-81
2023/06/10 00:30:49;;;;;;;1.50;1.40;;;;;;;;;;6275931;22;20176;-81
2023/06/10 00:33:17;;;;;;;2.50;2.30;;;;;;;;;;6275956;22;20201;-82
2023/06/10 00:35:46;;;;;;;1.27;1.17;;;;;;;;;;6275293;22;20170;-82
2023/06/10 00:38:14;;;;;;;0.70;0.70;;;;;;;;;;6276820;22;20177;-82
2023/06/10 00:40:43;;;;;;;3.60;1.87;;;;;;;;;;6276404;22;20179;-82
2023/06/10 00:43:11;;;;;;;0.93;0.63;;;;;;;;;;6275755;22;20327;-82
2023/06/10 00:45:41;;;;;;;0.80;0.80;;;;;;;;;;6276391;22;20177;-82
2023/06/10 00:48:10;;;;;;;5.97;3.67;;;;;;;;;;6276317;22;20266;-82
2023/06/10 00:50:39;;;;;;;2.63;1.57;;;;;;;;;;6275734;22;20170;-82
2023/06/10 00:53:08;;;;;;;2.20;1.37;;;;;;;;;;6275851;22;20166;-82
2023/06/10 00:55:37;;;;;;;1.57;1.47;;;;;;;;;;6276076;22;20181;-82
2023/06/10 00:58:06;;;;;;;1.00;1.00;;;;;;;;;;6276410;22;20176;-82
2023/06/10 01:00:34;;;;;;;1.80;1.30;;;;;;;;;;6275916;22;20190;-82
2023/06/10 01:03:07;;;;;;;0.77;0.77;;;;;;;;;;6275370;22;20176;-82
2023/06/10 01:05:36;;;;;;;0.80;0.80;;;;;;;;;;6276039;22;20176;-82
2023/06/10 01:08:07;;;;;;;5.17;3.60;;;;;;;;;;6275690;22;20177;-82
2023/06/10 01:10:39;;;;;;;2.33;1.77;;;;;;;;;;6276232;22;20239;-82
2023/06/10 01:13:11;;;;;;;2.43;1.80;;;;;;;;;;6276136;22;20180;-81
2023/06/10 01:15:40;;;;;;;2.17;2.07;;;;;;;;;;6275974;22;20201;-81
2023/06/10 01:18:14;;;;;;;1.63;1.37;;;;;;;;;;6275371;22;20181;-81
2023/06/10 01:20:46;;;;;;;3.80;2.43;;;;;;;;;;6276089;22;20207;-81
2023/06/10 01:23:16;;;;;;;1.90;1.13;;;;;;;;;;6275945;22;20183;-82
2023/06/10 01:25:49;;;;;;;6.60;3.17;;;;;;;;;;6275677;22;20170;-85
2023/06/10 01:28:21;;;;;;;1.50;1.40;;;;;;;;;;6275496;22;20280;-86
2023/06/10 01:30:52;;;;;;;1.87;1.57;;;;;;;;;;6275879;22;20177;-86
2023/06/10 01:33:25;;;;;;;1.33;1.17;;;;;;;;;;6275068;22;20200;-85
2023/06/10 01:35:54;;;;;;;2.30;1.63;;;;;;;;;;6275499;22;20170;-85
2023/06/10 01:38:25;;;;;;;1.23;1.23;;;;;;;;;;6275551;22;20180;-85
2023/06/10 01:40:54;;;;;;;3.27;1.93;;;;;;;;;;6275683;22;20173;-85
2023/06/10 01:43:22;;;;;;;3.50;1.80;;;;;;;;;;6275251;22;20195;-85
2023/06/10 01:45:51;;;;;;;1.53;1.43;;;;;;;;;;6275594;22;20173;-85
2023/06/10 01:48:19;;;;;;;1.10;1.10;;;;;;;;;;6275322;22;20181;-86
2023/06/10 01:50:48;;;;;;;1.80;1.67;;;;;;;;;;6275586;22;20177;-85
2023/06/10 01:53:16;;;;;;;0.87;0.60;;;;;;;;;;6275094;22;20170;-85
2023/06/10 01:55:46;;;;;;;1.47;1.37;;;;;;;;;;6275716;22;20201;-85
2023/06/10 01:58:15;;;;;;;0.70;0.70;;;;;;;;;;6275545;22;20173;-85
2023/06/10 02:00:43;;;;;;;2.07;1.97;;;;;;;;;;6275438;22;20199;-85
2023/06/10 02:03:12;;;;;;;1.90;1.80;;;;;;;;;;6275568;22;20243;-86
2023/06/10 02:05:41;;;;;;;1.17;1.13;;;;;;;;;;6275640;22;20169;-86
2023/06/10 02:08:09;;;;;;;0.83;0.83;;;;;;;;;;6274970;22;20240;-85
2023/06/10 02:10:37;;;;;;;2.67;2.13;;;;;;;;;;6275274;22;20185;-85
2023/06/10 02:13:07;;;;;;;1.60;1.43;;;;;;;;;;6275604;22;20173;-85
2023/06/10 02:15:36;;;;;;;1.87;1.70;;;;;;;;;;6274659;22;20196;-85
2023/06/10 02:18:04;;;;;;;0.80;0.80;;;;;;;;;;6274819;22;20169;-85
2023/06/10 02:20:33;;;;;;;2.37;2.10;;;;;;;;;;6275554;22;20173;-85
2023/06/10 02:23:01;;;;;;;2.40;2.20;;;;;;;;;;6275375;22;20223;-85
2023/06/10 02:25:30;;;;;;;11.90;1.63;;;;;;;;;;6274675;22;20171;-85
2023/06/10 02:27:58;;;;;;;3.43;2.90;;;;;;;;;;6276029;22;20251;-86
2023/06/10 02:30:28;;;;;;;1.03;1.03;;;;;;;;;;6275225;22;20178;-85
2023/06/10 02:32:56;;;;;;;3.03;2.63;;;;;;;;;;6274855;22;20174;-85
2023/06/10 02:35:25;;;;;;;2.63;1.73;;;;;;;;;;6274537;22;20221;-86
2023/06/10 02:37:54;;;;;;;4.43;3.20;;;;;;;;;;6275002;22;20170;-85
2023/06/10 02:40:22;;;;;;;4.30;1.97;;;;;;;;;;6274953;22;20260;-85
2023/06/10 02:42:51;;;;;;;0.97;0.93;;;;;;;;;;6274520;22;20189;-85
2023/06/10 02:45:19;;;;;;;5.97;2.43;;;;;;;;;;6275354;22;20173;-85
2023/06/10 02:47:49;;;;;;;1.10;1.07;;;;;;;;;;6275046;22;20169;-85
2023/06/10 02:50:17;;;;;;;2.63;2.47;;;;;;;;;;6274553;22;20177;-85
2023/06/10 02:52:46;;;;;;;6.27;4.03;;;;;;;;;;6274480;22;20175;-85
2023/06/10 02:55:15;;;;;;;1.20;1.20;;;;;;;;;;6274991;22;20254;-86
2023/06/10 02:57:43;;;;;;;0.80;0.80;;;;;;;;;;6275477;22;20177;-83
2023/06/10 03:00:14;;;;;;;6.03;2.97;;;;;;;;;;6274295;22;20212;-82
2023/06/10 03:02:42;;;;;;;4.40;2.70;;;;;;;;;;6275276;22;20222;-82
2023/06/10 03:05:12;;;;;;;2.63;2.23;;;;;;;;;;6274284;22;20231;-82
2023/06/10 03:07:41;;;;;;;1.33;1.23;;;;;;;;;;6274143;22;20173;-82
2023/06/10 03:10:10;;;;;;;4.50;2.67;;;;;;;;;;6274949;22;20195;-82
2023/06/10 03:12:38;;;;;;;0.83;0.67;;;;;;;;;;6274969;22;20173;-85
2023/06/10 03:15:07;;;;;;;3.40;1.83;;;;;;;;;;6274677;22;20224;-85
2023/06/10 03:17:36;;;;;;;1.33;1.23;;;;;;;;;;6274077;22;20177;-82
2023/06/10 03:20:10;;;;;;;0.80;0.80;;;;;;;;;;6274310;22;20169;-82
2023/06/10 03:22:40;;;;;;;3.40;2.03;;;;;;;;;;6274140;22;20169;-82
2023/06/10 03:25:13;;;;;;;1.20;1.20;;;;;;;;;;6274375;22;20175;-82
2023/06/10 03:27:42;;;;;;;4.40;3.37;;;;;;;;;;6274354;22;20189;-82
2023/06/10 03:30:11;;;;;;;1.53;1.40;;;;;;;;;;6274646;22;20184;-82
2023/06/10 03:32:40;;;;;;;0.73;0.73;;;;;;;;;;6274052;22;20174;-82
2023/06/10 03:35:09;;;;;;;2.47;1.40;;;;;;;;;;6274100;22;20267;-82
2023/06/10 03:37:40;;;;;;;1.30;1.20;;;;;;;;;;6274182;22;20173;-82
2023/06/10 03:40:11;;;;;;;1.43;1.33;;;;;;;;;;6274859;22;20208;-85
2023/06/10 03:42:39;;;;;;;2.07;1.73;;;;;;;;;;6274846;22;20185;-85
2023/06/10 03:45:08;;;;;;;0.90;0.90;;;;;;;;;;6275466;22;20261;-85
2023/06/10 03:47:38;;;;;;;2.13;1.60;;;;;;;;;;6274946;22;20202;-85
2023/06/10 03:50:07;;;;;;;1.07;0.90;;;;;;;;;;6273923;22;20185;-82
2023/06/10 03:52:36;;;;;;;3.07;2.40;;;;;;;;;;6275612;22;20227;-82
2023/06/10 03:55:07;;;;;;;1.77;1.37;;;;;;;;;;6276277;22;20243;-82
2023/06/10 03:57:36;;;;;;;0.80;0.80;;;;;;;;;;6276008;22;20180;-82
2023/06/10 04:00:10;;;;;;;1.30;1.27;;;;;;;;;;6275857;22;20176;-82
2023/06/10 04:02:45;;;;;;;1.37;1.27;;;;;;;;;;6277075;22;20218;-82
2023/06/10 04:05:15;;;;;;;1.70;1.70;;;;;;;;;;6276243;22;20224;-82
2023/06/10 04:07:43;;;;;;;4.37;3.07;;;;;;;;;;6276106;22;20179;-82
2023/06/10 04:10:13;;;;;;;2.23;1.97;;;;;;;;;;6276364;22;20256;-82
2023/06/10 04:12:42;;;;;;;2.20;1.57;;;;;;;;;;6276399;22;20165;-82
2023/06/10 04:15:13;;;;;;;1.77;1.67;;;;;;;;;;6276313;22;20178;-82
2023/06/10 04:17:42;;;;;;;0.70;0.70;;;;;;;;;;6276300;22;20190;-82
2023/06/10 04:20:11;;;;;;;0.70;0.70;;;;;;;;;;6276484;22;20173;-82
2023/06/10 04:22:40;;;;;;;1.27;1.27;;;;;;;;;;6276207;22;20180;-82
2023/06/10 04:25:10;;;;;;;0.97;0.97;;;;;;;;;;6276187;22;20187;-82
2023/06/10 04:27:40;;;;;;;3.90;1.80;;;;;;;;;;6276421;22;20201;-82
2023/06/10 04:30:09;;;;;;;1.53;1.43;;;;;;;;;;6276365;22;20171;-82
2023/06/10 04:32:37;;;;;;;1.23;1.23;;;;;;;;;;6275885;22;20229;-82
2023/06/10 04:35:07;;;;;;;3.50;2.33;;;;;;;;;;6275972;22;20206;-82
2023/06/10 04:37:36;;;;;;;4.03;3.63;;;;;;;;;;6276513;22;20184;-82
2023/06/10 04:40:05;;;;;;;2.27;2.07;;;;;;;;;;6276532;22;20181;-82
2023/06/10 04:42:34;;;;;;;3.93;2.37;;;;;;;;;;6275764;22;20193;-82
2023/06/10 04:45:04;;;;;;;1.90;1.80;;;;;;;;;;6276491;22;20186;-82
2023/06/10 04:47:33;;;;;;;0.80;0.80;;;;;;;;;;6275936;22;20169;-82
2023/06/10 04:50:02;;;;;;;3.97;2.83;;;;;;;;;;6275880;22;20201;-82
2023/06/10 04:52:31;;;;;;;2.40;2.20;;;;;;;;;;6276195;22;20176;-82
2023/06/10 04:55:00;;;;;;;3.77;2.77;;;;;;;;;;6276131;22;20180;-82
2023/06/10 04:57:28;;;;;;;1.43;1.37;;;;;;;;;;6275612;22;20195;-82
2023/06/10 04:59:57;;;;;;;2.73;2.53;;;;;;;;;;6275867;22;20253;-81
2023/06/10 05:02:26;;;;;;;5.53;2.33;;;;;;;;;;6276098;22;20177;-82
2023/06/10 05:04:56;;;;;;;4.00;3.60;;;;;;;;;;6275311;22;20252;-81
2023/06/10 05:07:26;;;;;;;4.20;2.10;;;;;;;;;;6274967;22;20235;-82
2023/06/10 05:09:54;;;;;;;3.00;2.70;;;;;;;;;;6276046;22;20177;-82
2023/06/10 05:12:23;;;;;;;2.57;2.00;;;;;;;;;;6275772;22;20173;-82
2023/06/10 05:14:51;;;;;;;3.17;2.37;;;;;;;;;;6275215;22;20176;-82
2023/06/10 05:17:20;;;;;;;4.63;2.97;;;;;;;;;;6275427;22;20200;-82
2023/06/10 05:19:50;;;;;;;2.77;2.10;;;;;;;;;;6275764;22;20210;-82
2023/06/10 05:22:18;;;;;;;2.77;1.70;;;;;;;;;;6275054;22;20170;-82
2023/06/10 05:24:47;;;;;;;1.40;1.30;;;;;;;;;;6275730;22;20173;-82
2023/06/10 05:27:16;;;;;;;4.53;2.97;;;;;;;;;;6275393;22;20194;-82
2023/06/10 05:29:45;;;;;;;0.80;0.80;;;;;;;;;;6275383;22;20250;-82
2023/06/10 05:32:13;;;;;;;2.97;2.77;;;;;;;;;;6275320;22;20180;-82
2023/06/10 05:34:42;;;;;;;3.80;1.90;;;;;;;;;;6275763;22;20210;-82
2023/06/10 05:37:12;;;;;;;1.10;1.00;;;;;;;;;;6275629;22;20193;-82
2023/06/10 05:39:40;;;;;;;3.27;2.97;;;;;;;;;;6275434;22;20207;-82
2023/06/10 05:42:10;;;;;;;6.57;3.90;;;;;;;;;;6275756;22;20176;-82
2023/06/10 05:44:38;;;;;;;1.30;1.20;;;;;;;;;;6275709;22;20179;-82
2023/06/10 05:47:08;;;;;;;2.50;2.30;;;;;;;;;;6275050;22;20174;-82
2023/06/10 05:49:37;;;;;;;0.67;0.60;;;;;;;;;;6275223;22;20184;-82
2023/06/10 05:52:06;;;;;;;1.60;1.43;;;;;;;;;;6275168;22;20182;-82
2023/06/10 05:54:36;;;;;;;3.63;2.87;;;;;;;;;;6275507;22;20173;-81
2023/06/10 05:57:05;;;;;;;1.43;1.37;;;;;;;;;;6274336;22;20196;-82
2023/06/10 05:59:34;;;;;;;3.20;2.83;;;;;;;;;;6275126;22;20367;-82
2023/06/10 06:02:02;;;;;;;2.43;1.47;;;;;;;;;;6275293;22;20183;-82
2023/06/10 06:04:32;;;;;;;3.97;1.70;;;;;;;;;;6275108;22;20221;-82
2023/06/10 06:07:00;;;;;;;1.10;1.00;;;;;;;;;;6275027;22;20169;-82
2023/06/10 06:09:29;;;;;;;0.97;0.93;;;;;;;;;;6274957;22;20198;-81
2023/06/10 06:11:58;;;;;;;2.47;2.30;;;;;;;;;;6275547;22;20230;-82
2023/06/10 06:14:27;;;;;;;2.83;1.83;;;;;;;;;;6274536;22;20180;-81
2023/06/10 06:16:55;;;;;;;2.20;1.67;;;;;;;;;;6274794;22;20217;-82
2023/06/10 06:19:27;;;;;;;4.90;4.43;;;;;;;;;;6274995;22;20175;-82
2023/06/10 06:21:55;;;;;;;1.27;1.17;;;;;;;;;;6274780;22;20189;-85
2023/06/10 06:24:24;;;;;;;2.77;2.20;;;;;;;;;;6275476;22;20166;-85
2023/06/10 06:26:53;;;;;;;2.73;2.53;;;;;;;;;;6275352;22;20171;-85
2023/06/10 06:29:22;;;;;;;0.63;0.63;;;;;;;;;;6275109;22;20174;-85
2023/06/10 06:31:51;;;;;;;4.13;3.63;;;;;;;;;;6275036;22;20189;-85
2023/06/10 06:34:20;;;;;;;3.87;2.63;;;;;;;;;;6275422;22;20267;-86
2023/06/10 06:36:48;;;;;;;4.83;3.40;;;;;;;;;;6275330;22;20225;-86
2023/06/10 06:39:17;;;;;;;4.50;2.10;;;;;;;;;;6274919;22;20176;-86
2023/06/10 06:41:45;;;;;;;2.80;2.50;;;;;;;;;;6275690;22;20177;-86
2023/06/10 06:44:13;;;;;;;7.63;2.37;;;;;;;;;;6275533;22;20174;-85
2023/06/10 06:46:43;;;;;;;3.30;2.37;;;;;;;;;;6274610;22;20170;-86
2023/06/10 06:49:12;;;;;;;3.30;2.90;;;;;;;;;;6275030;22;20179;-86
2023/06/10 06:51:40;;;;;;;2.97;2.60;;;;;;;;;;6275297;22;20181;-86
2023/06/10 06:54:09;;;;;;;4.73;3.33;;;;;;;;;;6275129;22;20177;-87
2023/06/10 06:56:38;;;;;;;9.03;3.47;;;;;;;;;;6274864;22;20180;-87
2023/06/10 06:59:06;;;;;;;6.87;4.40;;;;;;;;;;6275280;22;20175;-85
2023/06/10 07:01:35;;;;;;;4.83;3.43;;;;;;;;;;6274911;22;20197;-86
2023/06/10 07:04:05;;;;;;;2.27;1.60;;;;;;;;;;6274704;22;20175;-87
2023/06/10 07:06:33;;;;;;;12.47;4.77;;;;;;;;;;6275105;22;20173;-86
2023/06/10 07:09:06;;;;;;;2.80;2.40;;;;;;;;;;6274960;22;20173;-86
2023/06/10 07:11:35;;;;;;;2.73;2.17;;;;;;;;;;6274270;22;20200;-80
2023/06/10 07:14:03;;;;;;;2.37;1.93;;;;;;;;;;6274400;22;20180;-80
2023/06/10 07:16:32;;;;;;;1.67;1.57;;;;;;;;;;6274629;22;20170;-80
2023/06/10 07:19:00;;;;;;;6.63;2.80;;;;;;;;;;6274625;22;20171;-81
2023/06/10 07:21:36;;;;;;;2.73;2.50;;;;;;;;;;6273885;22;20228;-81
2023/06/10 07:24:04;;;;;;;7.73;3.90;;;;;;;;;;6274188;22;20261;-81
2023/06/10 07:26:33;;;;;;;6.17;3.03;;;;;;;;;;6275047;22;20222;-80
2023/06/10 07:29:05;;;;;;;2.73;2.50;;;;;;;;;;6276038;22;20226;-81
2023/06/10 07:31:33;;;;;;;1.10;1.10;;;;;;;;;;6276657;22;20182;-81
2023/06/10 07:34:02;;;;;;;4.97;3.70;;;;;;;;;;6276225;22;20202;-81
2023/06/10 07:36:30;;;;;;;5.67;2.07;;;;;;;;;;6276492;22;20181;-81
2023/06/10 07:39:00;;;;;;;4.70;3.50;;;;;;;;;;6275788;22;20196;-81
2023/06/10 07:41:28;;;;;;;5.20;3.90;;;;;;;;;;6276874;22;20185;-81
2023/06/10 07:43:57;;;;;;;5.47;3.60;;;;;;;;;;6276314;22;20172;-81
2023/06/10 07:46:26;;;;;;;4.43;2.80;;;;;;;;;;6276717;22;20360;-82
2023/06/10 07:48:55;;;;;;;2.00;1.70;;;;;;;;;;6277238;22;20163;-84
2023/06/10 07:51:24;;;;;;;2.63;2.37;;;;;;;;;;6276556;22;20177;-88
2023/06/10 07:53:52;;;;;;;6.10;2.07;;;;;;;;;;6277193;22;20178;-86
2023/06/10 07:56:26;;;;;;;3.90;2.47;;;;;;;;;;6276289;22;20181;-86
2023/06/10 07:58:54;;;;;;;2.43;2.00;;;;;;;;;;6276345;22;20189;-86
2023/06/10 08:01:24;;;;;;;2.40;2.20;;;;;;;;;;6276813;22;20179;-85
2023/06/10 08:03:52;;;;;;;4.70;2.87;;;;;;;;;;6275793;22;20176;-84
2023/06/10 08:06:21;;;;;;;1.57;1.47;;;;;;;;;;6276202;22;20247;-85
2023/06/10 08:08:49;;;;;;;3.47;3.17;;;;;;;;;;6276619;22;20202;-85
2023/06/10 08:11:18;;;;;;;2.77;2.27;;;;;;;;;;6275899;22;20171;-84
2023/06/10 08:13:48;;;;;;;7.17;3.50;;;;;;;;;;6276452;22;20180;-84
2023/06/10 08:16:16;;;;;;;2.07;1.80;;;;;;;;;;6276453;22;20184;-84
2023/06/10 08:18:45;;;;;;;4.47;3.67;;;;;;;;;;6276167;22;20196;-83
2023/06/10 08:21:13;;;;;;;7.97;4.83;;;;;;;;;;6275950;22;20165;-86
2023/06/10 08:23:41;;;;;;;5.17;3.03;;;;;;;;;;6276212;22;20217;-85
2023/06/10 08:26:10;;;;;;;6.87;4.03;;;;;;;;;;6276511;22;20179;-85
2023/06/10 08:28:39;;;;;;;7.73;4.30;;;;;;;;;;6275876;22;20202;-86
2023/06/10 08:31:12;;;;;;;4.37;3.47;;;;;;;;;;6273231;22;20200;-84
2023/06/10 08:33:40;;;;;;;4.40;4.00;;;;;;;;;;6275419;22;20222;-87
2023/06/10 08:36:09;;;;;;;4.63;3.07;;;;;;;;;;6276478;22;20171;-85
2023/06/10 08:38:37;;;;;;;3.63;2.83;;;;;;;;;;6276003;22;20200;-85
2023/06/10 08:41:10;;;;;;;6.50;4.00;;;;;;;;;;6276271;22;20173;-85
2023/06/10 08:43:41;;;;;;;5.10;3.67;;;;;;;;;;6266524;22;20219;-85
2023/06/10 08:46:10;;;;;;;3.67;2.47;;;;;;;;;;6272127;22;20196;-86
2023/06/10 08:48:43;;;;;;;8.67;4.17;;;;;;;;;;6272168;22;20242;-85
2023/06/10 08:51:12;;;;;;;1.67;1.57;;;;;;;;;;6277144;22;20220;-85
2023/06/10 08:53:47;;;;;;;2.30;1.90;;;;;;;;;;6275189;22;20212;-86
2023/06/10 08:56:16;;;;;;;15.17;4.90;;;;;;;;;;6274616;22;20260;-86
2023/06/10 08:58:45;;;;;;;3.63;2.93;;;;;;;;;;6273881;22;20192;-85
2023/06/10 09:01:14;;;;;;;5.10;4.60;;;;;;;;;;6274464;22;20173;-86
2023/06/10 09:03:45;;;;;;;5.50;3.53;;;;;;;;;;6274970;22;20202;-85
2023/06/10 09:06:14;;;;;;;4.73;2.37;;;;;;;;;;6275296;22;20180;-85
2023/06/10 09:08:43;;;;;;;6.23;3.73;;;;;;;;;;6274707;22;20165;-85
2023/06/10 09:11:12;;;;;;;4.57;3.30;;;;;;;;;;6274354;22;20183;-85
2023/06/10 09:13:41;;;;;;;5.10;3.60;;;;;;;;;;6275112;22;20247;-85
2023/06/10 09:16:11;;;;;;;4.73;3.83;;;;;;;;;;6273199;22;20182;-85
2023/06/10 09:18:40;;;;;;;3.30;1.77;;;;;;;;;;6275480;22;20201;-85
2023/06/10 09:21:09;;;;;;;5.10;3.90;;;;;;;;;;6274680;22;20179;-86
2023/06/10 09:23:38;;;;;;;2.43;2.27;;;;;;;;;;6275104;22;20181;-85
2023/06/10 09:26:11;;;;;;;13.13;2.17;;;;;;;;;;6274894;22;20179;-82
2023/06/10 09:28:40;;;;;;;2.47;2.20;;;;;;;;;;6274437;22;20213;-82
2023/06/10 09:31:09;;;;;;;5.60;2.87;;;;;;;;;;6275443;22;20202;-89
2023/06/10 09:33:39;;;;;;;4.97;3.10;;;;;;;;;;6275776;22;20263;-82
2023/06/10 09:36:11;;;;;;;6.57;4.57;;;;;;;;;;6274518;22;20170;-82
2023/06/10 09:38:41;;;;;;;3.37;3.07;;;;;;;;;;6274150;22;20185;-82
2023/06/10 09:41:10;;;;;;;3.37;3.07;;;;;;;;;;6274567;22;20189;-82
2023/06/10 09:43:43;;;;;;;4.83;2.43;;;;;;;;;;6274698;22;20168;-82
2023/06/10 09:46:16;;;;;;;5.97;4.90;;;;;;;;;;6274776;22;20199;-90
2023/06/10 09:48:45;;;;;;;4.43;3.17;;;;;;;;;;6275476;22;20175;-82
2023/06/10 09:51:14;;;;;;;5.77;4.30;;;;;;;;;;6273802;22;20172;-82
2023/06/10 09:53:50;;;;;;;2.90;2.57;;;;;;;;;;6273595;22;20172;-82
2023/06/10 09:56:20;;;;;;;6.57;4.93;;;;;;;;;;6274392;22;20263;-82
2023/06/10 09:58:49;;;;;;;5.70;3.93;;;;;;;;;;6274540;22;20190;-82
2023/06/10 10:01:17;;;;;;;4.60;2.97;;;;;;;;;;6263185;22;20224;-82
2023/06/10 10:03:47;;;;;;;8.20;3.10;;;;;;;;;;6274900;22;20177;-83
2023/06/10 10:06:16;;;;;;;5.40;3.60;;;;;;;;;;6275060;22;20180;-80
2023/06/10 10:08:45;;;;;;;0.97;0.97;;;;;;;;;;6274977;22;20176;-79
2023/06/10 10:11:16;;;;;;;17.37;4.73;;;;;;;;;;6273263;22;20168;-79
2023/06/10 10:13:46;;;;;;;3.53;2.87;;;;;;;;;;6274210;22;20187;-85
2023/06/10 10:16:16;;;;;;;3.60;3.27;;;;;;;;;;6274310;22;20175;-86
2023/06/10 10:18:51;;;;;;;5.93;3.20;;;;;;;;;;6271683;22;20188;-79
2023/06/10 10:21:22;;;;;;;5.20;2.40;;;;;;;;;;6275446;22;20172;-79
2023/06/10 10:23:54;;;;;;;1.50;1.33;;;;;;;;;;6275355;22;20235;-79
2023/06/10 10:26:25;;;;;;;4.47;3.43;;;;;;;;;;6274929;22;20200;-80
2023/06/10 10:28:58;;;;;;;6.80;3.80;;;;;;;;;;6274788;22;20253;-79
2023/06/10 10:31:29;;;;;;;2.57;1.87;;;;;;;;;;6274469;22;20169;-80
2023/06/10 10:34:00;;;;;;;4.13;2.20;;;;;;;;;;6274914;22;20226;-79
2023/06/10 10:36:29;;;;;;;2.73;2.47;;;;;;;;;;6274167;22;20172;-79
2023/06/10 10:38:58;;;;;;;4.33;2.90;;;;;;;;;;6274816;22;20188;-79
2023/06/10 10:41:28;;;;;;;3.37;2.57;;;;;;;;;;6275033;22;20173;-82
2023/06/10 10:43:57;;;;;;;5.10;2.37;;;;;;;;;;6275622;22;20231;-88
2023/06/10 10:46:25;;;;;;;5.17;2.70;;;;;;;;;;6275265;22;20180;-87
2023/06/10 10:48:55;;;;;;;7.87;2.10;;;;;;;;;;6275937;22;20169;-88
2023/06/10 10:51:24;;;;;;;3.37;2.17;;;;;;;;;;6275880;22;20227;-87
2023/06/10 10:54:14;;;;;;;5.20;3.03;;;;;;;;;;6275534;22;20174;-88
2023/06/10 10:56:58;;;;;;;4.83;4.00;;;;;;;;;;6269281;22;20205;-87
2023/06/10 10:59:44;;;;;;;5.07;3.17;;;;;;;;;;6274526;22;20244;-87
2023/06/10 11:02:17;;;;;;;4.80;2.40;;;;;;;;;;6275580;22;20237;-89
2023/06/10 11:04:49;;;;;;;1.87;1.77;;;;;;;;;;6275616;22;20225;-81
2023/06/10 11:07:21;;;;;;;4.90;3.17;;;;;;;;;;6274483;22;20182;-82
2023/06/10 11:10:00;;;;;;;6.90;2.77;;;;;;;;;;6274066;22;20165;-82
2023/06/10 11:12:42;;;;;;;2.53;2.20;;;;;;;;;;6273859;22;20231;-88
2023/06/10 11:15:12;;;;;;;1.73;1.63;;;;;;;;;;6275165;22;20170;-88
2023/06/10 11:17:58;;;;;;;5.63;3.30;;;;;;;;;;6271217;22;20197;-87
2023/06/10 11:20:42;;;;;;;6.00;2.97;;;;;;;;;;6230987;22;20233;-84
2023/06/10 11:23:10;;;;;;;3.63;3.33;;;;;;;;;;6230080;23;20195;-84
2023/06/10 11:25:41;;;;;;;5.67;2.33;;;;;;;;;;6237687;23;20186;-84
2023/06/10 11:28:19;;;;;;;2.97;2.53;;;;;;;;;;6236414;22;20294;-83
2023/06/10 11:30:58;;;;;;;8.40;3.27;;;;;;;;;;6242254;23;20264;-84
2023/06/10 11:33:27;;;;;;;1.87;1.53;;;;;;;;;;6241864;23;20199;-84
2023/06/10 11:35:56;;;;;;;6.30;2.70;;;;;;;;;;6242140;23;20274;-84
2023/06/10 11:38:25;;;;;;;3.30;2.20;;;;;;;;;;6241518;23;20211;-83
2023/06/10 11:40:53;;;;;;;2.60;2.40;;;;;;;;;;6241738;23;20196;-83
2023/06/10 11:43:28;;;;;;;6.77;3.73;;;;;;;;;;6240595;23;20202;-82
2023/06/10 11:45:59;;;;;;;3.47;3.10;;;;;;;;;;6239110;23;20191;-81
2023/06/10 11:48:30;;;;;;;1.87;1.70;;;;;;;;;;6240494;22;20202;-81
2023/06/10 11:50:58;;;;;;;6.17;3.30;;;;;;;;;;6239312;23;20196;-82
2023/06/10 11:53:27;;;;;;;6.87;4.53;;;;;;;;;;6239288;23;20196;-82
2023/06/10 11:55:55;;;;;;;4.83;2.97;;;;;;;;;;6240016;23;20196;-82
2023/06/10 11:58:25;;;;;;;2.57;1.70;;;;;;;;;;6239947;23;20196;-82
2023/06/10 12:00:56;;;;;;;5.33;3.57;;;;;;;;;;6239134;23;20199;-82
2023/06/10 12:03:27;;;;;;;2.73;2.27;;;;;;;;;;6240501;23;20253;-82
2023/06/10 12:05:57;;;;;;;2.13;1.63;;;;;;;;;;6241857;23;20195;-81
2023/06/10 12:08:26;;;;;;;3.73;1.77;;;;;;;;;;6240796;23;20303;-82
2023/06/10 12:10:55;;;;;;;5.27;3.30;;;;;;;;;;6242447;23;20193;-82
2023/06/10 12:13:24;;;;;;;2.13;1.93;;;;;;;;;;6242179;23;20208;-82
2023/06/10 12:15:55;;;;;;;2.43;2.20;;;;;;;;;;6243364;23;20247;-82
2023/06/10 12:18:24;;;;;;;2.20;2.00;;;;;;;;;;6243692;23;20201;-82
2023/06/10 12:20:54;;;;;;;3.13;2.83;;;;;;;;;;6243696;23;20200;-82
2023/06/10 12:23:25;;;;;;;3.60;2.50;;;;;;;;;;6242913;23;20196;-82
2023/06/10 12:25:56;;;;;;;4.30;2.20;;;;;;;;;;6243296;23;20189;-82
2023/06/10 12:28:28;;;;;;;4.60;2.97;;;;;;;;;;6243196;22;20253;-82
2023/06/10 12:31:08;;;;;;;1.07;1.07;;;;;;;;;;6243445;23;20252;-82
2023/06/10 12:33:37;;;;;;;1.73;1.63;;;;;;;;;;6242389;23;20199;-83
2023/06/10 12:36:17;;;;;;;4.67;2.20;;;;;;;;;;6242760;23;20196;-82
2023/06/10 12:38:51;;;;;;;2.57;2.37;;;;;;;;;;6243739;23;20188;-82
2023/06/10 12:41:21;;;;;;;4.17;2.13;;;;;;;;;;6242680;22;20276;-82
2023/06/10 12:43:50;;;;;;;4.30;2.50;;;;;;;;;;6242830;23;20195;-82
2023/06/10 12:46:18;;;;;;;3.13;2.07;;;;;;;;;;6244006;23;20193;-82
2023/06/10 12:48:54;;;;;;;3.37;2.57;;;;;;;;;;6244434;23;20240;-89
2023/06/10 12:51:23;;;;;;;2.53;2.30;;;;;;;;;;6244953;23;20182;-88
2023/06/10 12:53:52;;;;;;;2.10;1.90;;;;;;;;;;6244626;23;20196;-89
2023/06/10 12:56:21;;;;;;;4.97;2.93;;;;;;;;;;6241589;23;20217;-88
2023/06/10 12:58:50;;;;;;;1.83;1.40;;;;;;;;;;6242616;23;20194;-88
2023/06/10 13:01:18;;;;;;;3.50;3.20;;;;;;;;;;6240984;23;20209;-89
2023/06/10 13:03:50;;;;;;;2.80;2.27;;;;;;;;;;6242107;23;20205;-89
2023/06/10 13:06:20;;;;;;;2.43;2.07;;;;;;;;;;6241601;23;20244;-89
2023/06/10 13:08:51;;;;;;;2.43;2.23;;;;;;;;;;6241471;23;20200;-89
2023/06/10 13:11:19;;;;;;;2.63;1.83;;;;;;;;;;6242249;23;20193;-88
2023/06/10 13:13:48;;;;;;;2.13;1.07;;;;;;;;;;6241417;23;20204;-89
2023/06/10 13:16:16;;;;;;;5.20;2.27;;;;;;;;;;6241251;23;20200;-89
2023/06/10 13:18:46;;;;;;;1.00;1.00;;;;;;;;;;6241644;23;20185;-88
2023/06/10 13:21:17;;;;;;;3.50;2.77;;;;;;;;;;6242237;23;20204;-89
2023/06/10 13:23:47;;;;;;;5.07;3.57;;;;;;;;;;6240931;23;20232;-89
2023/06/10 13:26:17;;;;;;;2.27;2.07;;;;;;;;;;6240979;23;20204;-89
2023/06/10 13:28:45;;;;;;;4.13;3.37;;;;;;;;;;6240914;22;20193;-89
2023/06/10 13:31:15;;;;;;;3.47;2.03;;;;;;;;;;6241459;23;20212;-88
2023/06/10 13:33:44;;;;;;;3.60;2.27;;;;;;;;;;6240801;23;20263;-89
2023/06/10 13:36:13;;;;;;;3.90;2.20;;;;;;;;;;6240704;23;20204;-88
2023/06/10 13:38:41;;;;;;;5.67;3.37;;;;;;;;;;6241026;23;20193;-89
2023/06/10 13:41:10;;;;;;;6.47;3.37;;;;;;;;;;6240935;23;20205;-89
2023/06/10 13:43:40;;;;;;;3.20;2.80;;;;;;;;;;6240644;23;20300;-88
2023/06/10 13:46:08;;;;;;;3.40;2.37;;;;;;;;;;6241144;23;20245;-88
2023/06/10 13:48:37;;;;;;;5.87;2.77;;;;;;;;;;6242004;23;20202;-88
2023/06/10 13:51:06;;;;;;;3.77;3.47;;;;;;;;;;6240828;23;20185;-89
2023/06/10 13:53:35;;;;;;;2.07;1.87;;;;;;;;;;6240942;23;20197;-82
2023/06/10 13:56:03;;;;;;;5.10;3.43;;;;;;;;;;6240828;23;20220;-88
2023/06/10 13:58:31;;;;;;;3.23;2.00;;;;;;;;;;6240712;23;20185;-82
2023/06/10 14:01:01;;;;;;;3.30;2.90;;;;;;;;;;6241004;23;20200;-82
2023/06/10 14:03:30;;;;;;;1.33;1.27;;;;;;;;;;6241420;23;20197;-82
2023/06/10 14:05:58;;;;;;;1.17;1.10;;;;;;;;;;6240464;23;20256;-82
2023/06/10 14:08:27;;;;;;;1.87;1.77;;;;;;;;;;6240010;23;20207;-82
2023/06/10 14:10:55;;;;;;;2.50;1.80;;;;;;;;;;6242063;23;20235;-82
2023/06/10 14:13:24;;;;;;;3.23;2.13;;;;;;;;;;6242937;23;20193;-82
2023/06/10 14:15:52;;;;;;;2.90;2.23;;;;;;;;;;6240515;23;20235;-82
2023/06/10 14:18:22;;;;;;;2.47;2.27;;;;;;;;;;6240242;23;20193;-82
2023/06/10 14:20:51;;;;;;;7.60;2.57;;;;;;;;;;6239488;23;20190;-82
2023/06/10 14:23:19;;;;;;;4.23;2.13;;;;;;;;;;6240279;23;20224;-82
2023/06/10 14:25:48;;;;;;;2.40;2.20;;;;;;;;;;6239646;23;20203;-82
2023/06/10 14:28:17;;;;;;;1.87;1.77;;;;;;;;;;6239774;22;20272;-82
2023/06/10 14:30:45;;;;;;;1.73;1.37;;;;;;;;;;6241418;23;20194;-82
2023/06/10 14:33:14;;;;;;;7.50;2.83;;;;;;;;;;6239168;23;20193;-82
2023/06/10 14:35:44;;;;;;;2.17;1.40;;;;;;;;;;6238798;23;20205;-82
2023/06/10 14:38:12;;;;;;;1.50;1.40;;;;;;;;;;6239945;23;20190;-82
2023/06/10 14:40:41;;;;;;;1.07;0.67;;;;;;;;;;6239644;23;20225;-82
2023/06/10 14:43:09;;;;;;;2.40;1.67;;;;;;;;;;6240573;23;20196;-82
2023/06/10 14:45:38;;;;;;;2.77;2.50;;;;;;;;;;6240503;23;20239;-82
2023/06/10 14:48:08;;;;;;;3.43;2.07;;;;;;;;;;6239763;23;20194;-82
2023/06/10 14:50:37;;;;;;;2.73;1.67;;;;;;;;;;6239584;23;20193;-82
2023/06/10 14:53:07;;;;;;;2.20;1.83;;;;;;;;;;6241392;23;20232;-83
2023/06/10 14:55:36;;;;;;;2.43;2.07;;;;;;;;;;6240961;23;20189;-83
2023/06/10 14:58:04;;;;;;;2.00;1.57;;;;;;;;;;6240560;23;20197;-83